London Corbin Airport Magee Field
KLOZ : now visible

Airfield :











YOU CAN JOIN US ON...

 
LOGIN :

Register | Disclaimer

   EN    FR    IT 

 









Legend :    VFR   Marginal VFR   IFR   Intensive IFR   Very Intensive IFR
Visi :
Ceiling :
>= 8 km
>= 3000ft
5 to 8 km
1000 to 3000 ft
1500m to 5 km
500 to 1000 ft
800 to 1500m
200 to 500 ft
< 800m
< 200 ft
Symbols :   Thunderstorms  Fog  Heavy snow  Heavy precipitations  Wind > 20 kt






- Airport Elevation : 1212 ft


KLOZ - London Corbin Magee Field

CURRENT METAR :
  • 182153Z AUTO 32006KT 10SM CLR 29/14 A3005 RMK AO2 SLP161 T02890139

EXPIRED METARs :
  • 182053Z AUTO 31010G15KT 10SM BKN055 29/16 A3005 RMK AO2 SLP162 T02890156 58009
  • 181953Z AUTO 35008KT 10SM CLR 28/15 A3006 RMK AO2 SLP165 T02830150
  • 181853Z AUTO VRB04KT 10SM FEW055 27/16 A3007 RMK AO2 SLP170 T02720156
  • 181753Z AUTO 33006KT 10SM CLR 26/16 A3008 RMK AO2 SLP172 60005 T02610161 10261 20206 50000

TAF KLOZ
Valid from the 18 at 18:00 until the 19 at 18:00 UTC


181734Z 1818/1918 36008KT P6SM FEW050
FM190100 VRB03KT P6SM FEW250
KZID FIR / North America



MET'MAP, your aeronautical weather chart ! - Copyright ORBIFLY December 2007 - Disclaimer

ORBIFLY MET'MAP TEAM :

Programming & Development : Alexandra Zaïnal
Original concept : Baudouin d'Aumeries
Technical & hardware support : Manuel Goepfert
Assistance : Marc-Olivier Méhu




SOURCES & CREDITS :

   NOAA       Earth
Advisory